LEGA

Armilla Airport

Airport
ICAO code
LEGA
Summary
ICAO Region
EUR
ICAO Territory
Location

, Andalucia

Serving
Granada
Elevation
2297 ft
Coordinates
37° 7' 60" N , 3° 38' 8" W
Metar
Observation
LEGA 071330Z 04002KT 9999 SCT090 14/06 Q1013
Station
Granada / Armilla
Date/Time
2022-12-07 13:30:00
Wind direction
40°
Wind speed
02 kts
Lowest cloud amount
scattered clouds
Temperature
14°C
Dew point
6°C
Humidity
58%
QNH
1013 hPa
Weather condition
n/a

Runways

Designator Length Width Surface Rops
18/36 1300 30 ASP No/No

Airport map

Aerial View

SKYbrary Partners:

Safety knowledge contributed by: